Time;durP1;ratioP1;P1;durP2;ratioP2;P2;SDS_P1;SDS_P2;PMS_P1;PMS_P2;Temp;Humidity;BMP_temperature;BMP_pressure;BME280_temperature;BME280_humidity;BME280_pressure;Samples;Min_cycle;Max_cycle;Signal;HPM_P1;HPM_P2
2023/01/01 00:01:23;;;;;;;12.75;2.22;;;16.10;99.90;;;;;;5075861;28;20199;-79
2023/01/01 00:03:53;;;;;;;8.40;1.92;;;16.20;99.90;;;;;;5075775;28;21081;-84
2023/01/01 00:06:19;;;;;;;8.15;2.13;;;16.10;99.90;;;;;;5075817;28;20523;-84
2023/01/01 00:08:46;;;;;;;8.98;2.00;;;16.10;99.90;;;;;;5076468;28;20170;-79
2023/01/01 00:11:12;;;;;;;3.40;2.40;;;16.00;99.90;;;;;;5079313;28;20221;-81
2023/01/01 00:13:39;;;;;;;8.88;2.22;;;16.20;99.90;;;;;;5077499;28;20284;-91
2023/01/01 00:16:10;;;;;;;6.32;2.60;;;16.00;99.90;;;;;;5078202;28;20170;-81
2023/01/01 00:18:35;;;;;;;8.00;2.30;;;16.00;99.90;;;;;;5075840;28;20196;-80
2023/01/01 00:21:05;;;;;;;7.05;2.03;;;15.90;99.90;;;;;;5076237;28;20186;-87
2023/01/01 00:23:34;;;;;;;19.10;2.08;;;15.90;99.90;;;;;;5074335;28;20269;-89
2023/01/01 00:26:00;;;;;;;4.15;1.63;;;16.00;99.90;;;;;;5074951;28;20261;-83
2023/01/01 00:28:26;;;;;;;11.32;2.08;;;15.90;99.90;;;;;;5076348;28;20257;-80
2023/01/01 00:30:52;;;;;;;1.63;1.33;;;15.90;99.90;;;;;;5075020;28;20635;-80
2023/01/01 00:33:18;;;;;;;4.60;1.83;;;15.90;99.90;;;;;;5075221;28;20189;-88
2023/01/01 00:35:43;;;;;;;2.55;1.52;;;15.90;99.90;;;;;;5074921;28;20175;-79
2023/01/01 00:38:09;;;;;;;6.55;1.92;;;15.80;99.90;;;;;;5073993;28;20171;-80
2023/01/01 00:40:34;;;;;;;4.65;1.58;;;15.80;99.90;;;;;;5074974;28;20549;-89
2023/01/01 00:43:00;;;;;;;3.75;1.70;;;15.80;99.90;;;;;;5075239;28;20214;-81
2023/01/01 00:45:25;;;;;;;5.45;1.73;;;15.90;99.90;;;;;;5074877;28;20167;-80
2023/01/01 00:47:52;;;;;;;2.80;1.50;;;15.80;99.90;;;;;;5075175;28;20170;-87
2023/01/01 00:50:19;;;;;;;8.38;1.80;;;15.80;99.90;;;;;;5074465;28;20623;-83
2023/01/01 00:52:45;;;;;;;9.40;1.63;;;15.70;99.90;;;;;;5074820;28;20190;-79
2023/01/01 00:55:11;;;;;;;3.53;1.75;;;15.70;99.90;;;;;;5073307;28;20166;-79
2023/01/01 00:57:36;;;;;;;13.38;2.70;;;15.70;99.90;;;;;;5073490;28;20649;-79
2023/01/01 01:00:04;;;;;;;8.25;2.20;;;15.70;99.90;;;;;;5074350;28;20656;-78
2023/01/01 01:02:29;;;;;;;8.18;2.05;;;15.80;99.90;;;;;;5074414;28;20214;-78
2023/01/01 01:04:55;;;;;;;2.42;1.85;;;15.80;99.90;;;;;;5074182;28;20196;-79
2023/01/01 01:07:20;;;;;;;11.18;2.53;;;15.80;99.90;;;;;;5073406;28;20661;-92
2023/01/01 01:09:46;;;;;;;5.03;2.05;;;15.70;99.90;;;;;;5074098;28;20253;-82
2023/01/01 01:12:11;;;;;;;2.17;1.70;;;15.70;99.90;;;;;;5074347;28;20174;-79
2023/01/01 01:14:37;;;;;;;8.48;1.30;;;15.70;99.90;;;;;;5074027;28;20248;-79
2023/01/01 01:17:03;;;;;;;3.08;1.30;;;15.80;99.90;;;;;;5074094;28;20177;-79
2023/01/01 01:19:28;;;;;;;6.88;2.00;;;15.70;99.90;;;;;;5073990;28;20158;-80
2023/01/01 01:21:54;;;;;;;5.70;1.70;;;15.60;99.90;;;;;;5072783;28;20254;-79
2023/01/01 01:24:19;;;;;;;3.17;2.05;;;15.70;99.90;;;;;;5072407;28;20220;-79
2023/01/01 01:26:45;;;;;;;6.47;1.67;;;15.70;99.90;;;;;;5075093;28;20165;-86
2023/01/01 01:29:11;;;;;;;3.88;1.63;;;15.60;99.90;;;;;;5074491;28;20185;-80
2023/01/01 01:31:36;;;;;;;4.00;1.70;;;15.70;99.90;;;;;;5074006;28;20174;-86
2023/01/01 01:34:02;;;;;;;7.63;1.35;;;15.70;99.90;;;;;;5073605;28;20674;-79
2023/01/01 01:36:28;;;;;;;4.13;1.35;;;15.70;99.90;;;;;;5073685;28;20163;-79
2023/01/01 01:38:54;;;;;;;8.50;1.95;;;15.60;99.90;;;;;;5073409;28;20170;-90
2023/01/01 01:41:26;;;;;;;3.65;1.70;;;15.70;99.90;;;;;;5073557;28;20249;-87
2023/01/01 01:44:24;;;;;;;11.88;2.10;;;15.80;99.90;;;;;;5075784;28;20178;-88
2023/01/01 01:49:44;;;;;;;3.83;1.48;;;15.80;99.90;;;;;;5075678;28;20266;-85
2023/01/01 01:52:10;;;;;;;3.53;1.73;;;15.80;99.90;;;;;;5074104;28;20249;-80
2023/01/01 01:54:39;;;;;;;7.03;2.03;;;15.70;99.90;;;;;;5073200;28;20273;-89
2023/01/01 01:57:08;;;;;;;2.17;1.52;;;15.70;99.90;;;;;;5073548;28;20257;-80
2023/01/01 01:59:39;;;;;;;4.18;1.50;;;15.70;99.90;;;;;;5073711;28;20251;-80
2023/01/01 02:02:17;;;;;;;3.05;1.65;;;15.70;99.90;;;;;;5073403;28;20202;-84
2023/01/01 02:04:43;;;;;;;4.13;1.48;;;15.70;99.90;;;;;;5072800;28;20627;-86
2023/01/01 02:07:13;;;;;;;18.08;2.45;;;15.70;99.90;;;;;;5072962;28;20178;-77
2023/01/01 02:09:39;;;;;;;7.07;1.83;;;15.60;99.90;;;;;;5073095;28;20162;-78
2023/01/01 02:12:05;;;;;;;6.97;1.35;;;15.60;99.90;;;;;;5073113;28;20562;-77
2023/01/01 02:14:32;;;;;;;7.80;1.33;;;15.60;99.90;;;;;;5072762;28;20190;-88
2023/01/01 02:17:07;;;;;;;8.23;1.75;;;15.60;99.90;;;;;;5073005;28;20167;-88
2023/01/01 02:20:00;;;;;;;7.22;1.65;;;15.50;99.90;;;;;;5072900;28;20170;-79
2023/01/01 02:22:48;;;;;;;2.63;1.20;;;15.60;99.90;;;;;;5072639;28;20217;-78
2023/01/01 02:25:37;;;;;;;6.30;1.42;;;15.50;99.90;;;;;;5072936;28;20262;-79
2023/01/01 02:28:41;;;;;;;2.97;1.45;;;15.50;99.90;;;;;;5072988;28;20159;-78
2023/01/01 02:31:13;;;;;;;9.13;1.60;;;15.50;99.90;;;;;;5073193;28;20220;-85
2023/01/01 02:33:41;;;;;;;2.90;1.30;;;15.50;99.90;;;;;;5072513;28;20185;-78
2023/01/01 02:36:09;;;;;;;3.95;1.65;;;15.50;99.90;;;;;;5072742;28;20163;-78
2023/01/01 02:38:40;;;;;;;3.40;1.55;;;15.50;99.90;;;;;;5072188;28;20627;-90
2023/01/01 02:41:13;;;;;;;6.15;1.83;;;15.50;99.90;;;;;;5072334;28;20198;-78
2023/01/01 02:43:41;;;;;;;2.67;1.10;;;15.40;99.90;;;;;;5072996;28;20217;-78
2023/01/01 02:46:10;;;;;;;1.77;1.60;;;15.50;99.90;;;;;;5072828;28;20212;-79
2023/01/01 02:48:51;;;;;;;4.38;1.30;;;15.50;99.90;;;;;;5073477;28;20190;-78
2023/01/01 02:51:27;;;;;;;4.07;1.40;;;15.50;99.90;;;;;;5073116;28;20166;-78
2023/01/01 02:54:11;;;;;;;1.63;1.35;;;15.40;99.90;;;;;;5073026;28;20654;-79
2023/01/01 02:57:07;;;;;;;5.47;1.40;;;15.50;99.90;;;;;;5072827;28;20174;-78
2023/01/01 03:02:48;;;;;;;6.38;1.65;;;15.30;99.90;;;;;;5073795;28;20221;-78
2023/01/01 03:05:24;;;;;;;9.23;1.50;;;15.40;99.90;;;;;;5074033;28;20241;-78
2023/01/01 03:07:55;;;;;;;6.78;1.73;;;15.40;99.90;;;;;;5073363;28;20174;-78
2023/01/01 03:10:48;;;;;;;4.97;1.67;;;15.30;99.90;;;;;;5071151;28;20198;-79
2023/01/01 03:13:43;;;;;;;5.88;1.40;;;15.30;99.90;;;;;;5072133;28;20209;-80
2023/01/01 03:16:13;;;;;;;5.10;1.48;;;15.20;99.90;;;;;;5072223;28;20183;-87
2023/01/01 03:18:47;;;;;;;2.33;1.33;;;15.20;99.90;;;;;;5072642;28;20158;-85
2023/01/01 03:21:16;;;;;;;3.65;1.70;;;15.30;99.90;;;;;;5072540;28;20202;-89
2023/01/01 03:23:48;;;;;;;6.57;1.45;;;15.30;99.90;;;;;;5072116;28;20281;-78
2023/01/01 03:26:16;;;;;;;5.13;1.52;;;15.30;99.90;;;;;;5072545;28;20177;-83
2023/01/01 03:28:56;;;;;;;5.15;2.00;;;15.30;99.90;;;;;;5072545;28;20161;-87
2023/01/01 03:31:24;;;;;;;2.65;1.20;;;15.40;99.90;;;;;;5072689;28;20162;-79
2023/01/01 03:34:01;;;;;;;2.53;1.63;;;15.30;99.90;;;;;;5071990;28;20194;-79
2023/01/01 03:36:34;;;;;;;11.30;2.45;;;15.20;99.90;;;;;;5072204;28;20170;-81
2023/01/01 03:39:07;;;;;;;7.70;1.98;;;15.10;99.90;;;;;;5072076;28;20159;-79
2023/01/01 03:41:41;;;;;;;12.52;1.70;;;15.00;99.90;;;;;;5073190;28;20560;-89
2023/01/01 03:44:32;;;;;;;8.98;1.88;;;15.00;99.90;;;;;;5073764;28;20182;-84
2023/01/01 03:46:58;;;;;;;2.67;1.77;;;15.10;99.90;;;;;;5076734;28;20280;-86
2023/01/01 03:49:24;;;;;;;6.50;1.58;;;15.10;99.90;;;;;;5076966;28;20162;-84
2023/01/01 03:52:03;;;;;;;2.67;1.30;;;15.00;99.90;;;;;;5076894;28;20173;-88
2023/01/01 03:54:43;;;;;;;4.15;1.60;;;15.00;99.90;;;;;;5076415;28;20193;-79
2023/01/01 03:57:37;;;;;;;4.88;1.45;;;15.00;99.90;;;;;;5075102;28;20622;-78
2023/01/01 04:00:06;;;;;;;3.60;1.73;;;15.00;99.90;;;;;;5074274;28;20179;-78
2023/01/01 04:02:39;;;;;;;5.00;1.73;;;14.80;99.90;;;;;;5075210;28;20562;-78
2023/01/01 04:05:06;;;;;;;3.30;1.58;;;14.90;99.90;;;;;;5074214;28;20174;-78
2023/01/01 04:07:32;;;;;;;5.30;1.70;;;15.00;99.90;;;;;;5075046;28;20174;-79
2023/01/01 04:10:01;;;;;;;3.97;1.35;;;14.90;99.90;;;;;;5074912;28;20174;-78
2023/01/01 04:12:29;;;;;;;4.68;1.83;;;14.80;99.90;;;;;;5074966;28;20169;-88
2023/01/01 04:14:54;;;;;;;3.40;1.60;;;14.80;99.90;;;;;;5075395;28;20638;-78
2023/01/01 04:17:20;;;;;;;3.95;1.38;;;14.80;99.90;;;;;;5075341;28;20181;-79
2023/01/01 04:19:46;;;;;;;6.93;1.60;;;14.80;99.90;;;;;;5075154;28;20170;-77
2023/01/01 04:22:11;;;;;;;2.88;1.45;;;14.70;99.90;;;;;;5073791;28;20217;-78
2023/01/01 04:24:37;;;;;;;4.07;1.33;;;14.70;99.90;;;;;;5074728;28;20643;-86
2023/01/01 04:27:03;;;;;;;8.15;1.35;;;14.70;99.90;;;;;;5074938;28;20163;-77
2023/01/01 04:29:28;;;;;;;1.58;1.30;;;14.70;99.90;;;;;;5074961;28;20619;-77
2023/01/01 04:31:54;;;;;;;4.80;1.33;;;14.60;99.90;;;;;;5075238;28;20171;-77
2023/01/01 04:34:19;;;;;;;5.72;1.35;;;14.80;99.90;;;;;;5073388;28;20198;-78
2023/01/01 04:36:45;;;;;;;10.60;1.65;;;14.80;99.90;;;;;;5075017;28;20154;-78
2023/01/01 04:39:11;;;;;;;7.72;2.00;;;14.80;99.90;;;;;;5074767;28;20622;-78
2023/01/01 04:41:36;;;;;;;3.28;1.70;;;14.80;99.90;;;;;;5074626;28;20236;-90
2023/01/01 04:44:02;;;;;;;4.05;1.50;;;14.70;99.90;;;;;;5074531;28;20231;-79
2023/01/01 04:46:27;;;;;;;2.75;1.52;;;14.70;99.90;;;;;;5074759;28;20620;-77
2023/01/01 04:48:53;;;;;;;2.33;1.33;;;14.80;99.90;;;;;;5074706;28;20212;-82
2023/01/01 04:51:20;;;;;;;11.45;2.28;;;14.80;99.90;;;;;;5074363;28;20193;-80
2023/01/01 04:53:45;;;;;;;5.05;1.80;;;14.70;99.90;;;;;;5074333;28;20265;-77
2023/01/01 04:56:14;;;;;;;5.10;1.80;;;14.70;99.90;;;;;;5072968;28;20745;-77
2023/01/01 04:58:41;;;;;;;3.80;1.55;;;14.80;99.90;;;;;;5074344;28;20530;-82
2023/01/01 05:01:13;;;;;;;6.43;1.80;;;14.80;99.90;;;;;;5072925;28;20190;-79
2023/01/01 05:03:38;;;;;;;6.50;1.58;;;14.80;99.90;;;;;;5073916;28;20202;-78
2023/01/01 05:06:08;;;;;;;14.38;1.73;;;14.70;99.90;;;;;;5074558;28;20171;-78
2023/01/01 05:08:36;;;;;;;6.85;1.70;;;14.80;99.90;;;;;;5074364;28;20174;-78
2023/01/01 05:11:07;;;;;;;4.35;1.77;;;14.80;99.90;;;;;;5074210;28;20642;-78
2023/01/01 05:13:41;;;;;;;3.88;1.40;;;14.70;99.90;;;;;;5072544;28;20552;-78
2023/01/01 05:16:09;;;;;;;6.25;2.90;;;14.80;99.90;;;;;;5074182;28;20170;-78
2023/01/01 05:18:35;;;;;;;6.70;1.60;;;14.80;99.90;;;;;;5078494;28;20204;-81
2023/01/01 05:21:03;;;;;;;3.20;1.60;;;14.90;99.90;;;;;;5079852;28;20170;-78
2023/01/01 05:23:29;;;;;;;4.93;1.70;;;14.90;99.90;;;;;;5078358;28;20247;-79
2023/01/01 05:25:55;;;;;;;6.00;1.80;;;15.00;99.90;;;;;;5076079;28;20166;-78
2023/01/01 05:28:22;;;;;;;5.82;1.67;;;15.00;99.90;;;;;;5073869;28;20167;-78
2023/01/01 05:30:48;;;;;;;3.55;1.42;;;14.90;99.90;;;;;;5073924;28;20166;-79
2023/01/01 05:33:14;;;;;;;3.08;1.60;;;14.90;99.90;;;;;;5072602;28;20205;-79
2023/01/01 05:35:39;;;;;;;4.75;1.92;;;14.90;99.90;;;;;;5074405;28;20623;-79
2023/01/01 05:38:05;;;;;;;2.88;1.58;;;15.10;99.90;;;;;;5088950;28;20154;-79
2023/01/01 05:40:30;;;;;;;2.17;1.48;;;15.20;99.90;;;;;;5083037;28;20201;-79
2023/01/01 05:42:56;;;;;;;8.45;1.48;;;15.00;99.90;;;;;;5073382;28;20228;-79
2023/01/01 05:45:21;;;;;;;3.63;1.52;;;15.00;99.90;;;;;;5073561;28;20171;-78
2023/01/01 05:47:47;;;;;;;5.32;1.90;;;15.00;99.90;;;;;;5079659;28;20249;-80
2023/01/01 05:50:13;;;;;;;9.75;1.50;;;15.00;99.90;;;;;;5077555;28;20175;-78
2023/01/01 05:52:39;;;;;;;3.83;1.50;;;15.00;99.90;;;;;;5073427;28;20239;-79
2023/01/01 05:55:05;;;;;;;8.25;2.10;;;15.00;99.90;;;;;;5079691;28;20171;-79
2023/01/01 05:57:31;;;;;;;6.88;2.00;;;15.10;99.90;;;;;;5077720;28;20194;-80
2023/01/01 05:59:56;;;;;;;4.40;1.77;;;15.10;99.90;;;;;;5075043;28;20165;-79
2023/01/01 06:02:22;;;;;;;6.07;2.00;;;15.00;99.90;;;;;;5072995;28;20217;-81
2023/01/01 06:04:48;;;;;;;8.18;1.67;;;15.00;99.90;;;;;;5074245;28;20171;-78
2023/01/01 06:07:14;;;;;;;3.75;1.65;;;15.00;99.90;;;;;;5076854;28;20194;-78
2023/01/01 06:09:39;;;;;;;4.03;1.45;;;14.90;99.90;;;;;;5075343;28;20201;-79
2023/01/01 06:12:05;;;;;;;2.30;1.58;;;14.90;99.90;;;;;;5075098;28;20258;-78
2023/01/01 06:14:31;;;;;;;13.52;1.83;;;14.80;99.90;;;;;;5078295;28;20281;-78
2023/01/01 06:16:56;;;;;;;8.88;2.17;;;14.80;99.90;;;;;;5075884;28;20597;-79
2023/01/01 06:19:22;;;;;;;4.13;1.80;;;15.00;99.90;;;;;;5076785;28;20220;-78
2023/01/01 06:21:48;;;;;;;6.13;1.92;;;14.90;99.90;;;;;;5076179;28;20690;-78
2023/01/01 06:24:13;;;;;;;1.92;1.40;;;14.80;99.90;;;;;;5075008;28;20193;-79
2023/01/01 06:26:39;;;;;;;9.27;2.03;;;14.80;99.90;;;;;;5075274;28;20173;-79
2023/01/01 06:29:04;;;;;;;8.38;1.83;;;14.80;99.90;;;;;;5074449;28;20177;-79
2023/01/01 06:31:30;;;;;;;7.82;1.83;;;14.90;99.90;;;;;;5074641;28;20551;-79
2023/01/01 06:33:56;;;;;;;12.20;2.13;;;14.90;99.90;;;;;;5075613;28;20281;-80
2023/01/01 06:36:24;;;;;;;7.50;1.85;;;14.90;99.90;;;;;;5078363;28;20661;-79
2023/01/01 06:38:53;;;;;;;9.63;2.08;;;15.00;99.90;;;;;;5080683;28;20166;-78
2023/01/01 06:41:21;;;;;;;6.65;2.10;;;14.90;99.90;;;;;;5079832;28;20250;-81
2023/01/01 06:43:49;;;;;;;3.95;1.58;;;14.90;99.90;;;;;;5081296;28;20210;-79
2023/01/01 06:46:16;;;;;;;5.00;1.50;;;14.90;99.90;;;;;;5086484;28;20196;-80
2023/01/01 06:48:42;;;;;;;2.60;1.60;;;15.10;99.90;;;;;;5083305;28;20166;-79
2023/01/01 06:51:18;;;;;;;8.80;2.28;;;15.00;99.90;;;;;;5078270;28;20590;-77
2023/01/01 06:53:44;;;;;;;5.40;1.80;;;14.90;99.90;;;;;;5076593;28;20181;-87
2023/01/01 06:56:10;;;;;;;13.13;2.17;;;14.90;99.90;;;;;;5080478;28;20645;-88
2023/01/01 06:58:38;;;;;;;5.03;1.88;;;14.80;99.90;;;;;;5082954;28;20178;-91
2023/01/01 07:01:22;;;;;;;8.85;2.72;;;14.80;99.90;;;;;;5079717;28;20178;-91
2023/01/01 07:03:59;;;;;;;6.78;1.90;;;14.70;99.90;;;;;;5078842;28;20221;-84
2023/01/01 07:06:26;;;;;;;5.20;1.73;;;14.80;99.90;;;;;;5083015;28;20227;-89
2023/01/01 07:08:53;;;;;;;7.38;1.80;;;14.80;99.90;;;;;;5088838;28;20150;-84
2023/01/01 07:11:20;;;;;;;4.95;2.20;;;14.70;99.90;;;;;;5088757;28;20169;-83
2023/01/01 07:13:46;;;;;;;4.97;1.98;;;14.70;99.90;;;;;;5083701;28;20210;-82
2023/01/01 07:16:31;;;;;;;11.30;2.22;;;14.70;99.90;;;;;;5077829;28;20182;-89
2023/01/01 07:18:57;;;;;;;5.93;2.28;;;14.60;99.90;;;;;;5081708;28;20173;-80
2023/01/01 07:21:30;;;;;;;7.10;2.70;;;14.60;99.90;;;;;;5080498;28;20222;-89
2023/01/01 07:24:01;;;;;;;8.40;1.60;;;14.60;99.90;;;;;;5081583;28;20277;-85
2023/01/01 07:26:28;;;;;;;22.50;2.50;;;14.70;99.90;;;;;;5080919;28;20163;-84
2023/01/01 07:28:54;;;;;;;3.85;2.10;;;14.70;99.90;;;;;;5078481;28;20234;-80
2023/01/01 07:31:20;;;;;;;9.45;1.90;;;14.70;99.90;;;;;;5078461;28;20594;-80
2023/01/01 07:33:46;;;;;;;5.47;2.10;;;14.60;99.90;;;;;;5078977;28;20209;-79
2023/01/01 07:36:11;;;;;;;8.73;2.05;;;14.60;99.90;;;;;;5078671;28;20245;-80
2023/01/01 07:38:37;;;;;;;10.10;1.88;;;14.60;99.90;;;;;;5077596;28;20502;-80
2023/01/01 07:41:03;;;;;;;9.30;2.60;;;14.50;99.90;;;;;;5083491;28;20183;-87
2023/01/01 07:43:28;;;;;;;6.15;2.90;;;14.40;99.90;;;;;;5076614;28;20198;-87
2023/01/01 07:45:54;;;;;;;4.22;1.95;;;14.50;99.90;;;;;;5075221;28;20206;-86
2023/01/01 07:48:19;;;;;;;4.07;2.03;;;14.30;99.90;;;;;;5076393;28;20696;-84
2023/01/01 07:50:45;;;;;;;6.65;2.63;;;14.30;99.90;;;;;;5076662;28;20174;-87
2023/01/01 07:53:11;;;;;;;4.70;2.25;;;14.20;99.90;;;;;;5075051;28;20575;-86
2023/01/01 07:55:36;;;;;;;7.10;2.42;;;14.30;99.90;;;;;;5076277;28;20220;-83
2023/01/01 07:58:02;;;;;;;4.13;1.88;;;14.30;99.90;;;;;;5074323;28;20174;-82
2023/01/01 08:00:28;;;;;;;10.52;2.25;;;14.20;99.90;;;;;;5074101;28;20207;-82
2023/01/01 08:02:54;;;;;;;7.32;2.03;;;14.20;99.90;;;;;;5073807;28;20217;-80
2023/01/01 08:05:20;;;;;;;9.25;2.92;;;14.20;99.90;;;;;;5075131;28;20162;-80
2023/01/01 08:07:49;;;;;;;3.08;1.80;;;14.20;99.90;;;;;;5075387;28;20220;-82
2023/01/01 08:10:18;;;;;;;4.57;1.85;;;14.10;99.90;;;;;;5074170;28;20163;-84
2023/01/01 08:12:44;;;;;;;7.88;2.55;;;14.20;99.90;;;;;;5075180;28;20705;-85
2023/01/01 08:15:10;;;;;;;6.47;1.90;;;14.30;99.90;;;;;;5075351;28;20184;-82
2023/01/01 08:17:36;;;;;;;7.88;2.97;;;14.40;99.90;;;;;;5073825;28;20263;-81
2023/01/01 08:20:03;;;;;;;10.50;2.55;;;14.30;99.90;;;;;;5075454;28;20222;-80
2023/01/01 08:22:28;;;;;;;9.15;2.50;;;14.30;99.90;;;;;;5074598;28;20259;-83
2023/01/01 08:24:54;;;;;;;5.03;1.90;;;14.30;99.90;;;;;;5073899;28;20170;-84
2023/01/01 08:27:19;;;;;;;8.02;2.97;;;14.30;99.90;;;;;;5075154;28;20177;-88
2023/01/01 08:29:45;;;;;;;15.65;2.50;;;14.30;99.90;;;;;;5074563;28;20194;-86
2023/01/01 08:32:11;;;;;;;9.15;2.33;;;14.20;99.90;;;;;;5075489;28;20170;-82
2023/01/01 08:34:37;;;;;;;10.07;1.92;;;14.20;99.90;;;;;;5074719;28;20652;-81
2023/01/01 08:37:03;;;;;;;4.95;2.35;;;14.20;99.90;;;;;;5074529;28;20291;-81
2023/01/01 08:39:29;;;;;;;6.80;2.42;;;14.20;99.90;;;;;;5074496;28;20228;-81
2023/01/01 08:41:55;;;;;;;5.03;2.10;;;14.30;99.90;;;;;;5073730;28;20217;-89
2023/01/01 08:44:20;;;;;;;8.27;1.75;;;14.20;99.90;;;;;;5075142;28;20175;-84
2023/01/01 08:46:46;;;;;;;8.57;2.03;;;14.30;99.90;;;;;;5074590;28;20198;-84
2023/01/01 08:49:11;;;;;;;6.38;2.10;;;14.30;99.90;;;;;;5073514;28;20253;-86
2023/01/01 08:51:37;;;;;;;9.88;2.33;;;14.20;99.90;;;;;;5073354;28;20181;-81
2023/01/01 08:54:03;;;;;;;10.77;1.65;;;14.20;99.90;;;;;;5073216;28;20199;-84
2023/01/01 08:56:28;;;;;;;5.68;2.10;;;14.30;99.90;;;;;;5072956;28;20194;-88
2023/01/01 08:58:54;;;;;;;5.32;1.98;;;14.30;99.90;;;;;;5074327;28;20243;-81
2023/01/01 09:01:20;;;;;;;20.27;2.67;;;14.30;99.90;;;;;;5074571;28;20197;-82
2023/01/01 09:03:47;;;;;;;6.53;2.25;;;14.30;99.90;;;;;;5074745;28;20223;-80
2023/01/01 09:06:13;;;;;;;9.27;2.00;;;14.40;99.90;;;;;;5074819;28;20288;-81
2023/01/01 09:08:39;;;;;;;9.38;2.08;;;14.40;99.90;;;;;;5074651;28;20246;-80
2023/01/01 09:11:04;;;;;;;11.85;1.88;;;14.40;99.90;;;;;;5073842;28;20258;-80
2023/01/01 09:13:31;;;;;;;9.15;2.10;;;14.30;99.90;;;;;;5075610;28;20191;-81
2023/01/01 09:15:57;;;;;;;7.18;1.92;;;14.40;99.90;;;;;;5083520;28;20261;-86
2023/01/01 09:18:23;;;;;;;10.93;2.00;;;14.40;99.90;;;;;;5078152;28;20178;-81
2023/01/01 09:20:48;;;;;;;8.05;1.70;;;14.50;99.90;;;;;;5063141;28;20197;-81
2023/01/01 09:23:16;;;;;;;5.85;2.20;;;14.50;99.90;;;;;;5081017;28;20221;-80
2023/01/01 09:25:42;;;;;;;5.88;2.05;;;14.50;99.90;;;;;;5075702;28;20182;-80
2023/01/01 09:28:11;;;;;;;6.25;2.47;;;14.60;99.90;;;;;;5073594;28;20209;-80
2023/01/01 09:30:36;;;;;;;5.75;2.05;;;14.60;99.90;;;;;;5072350;28;20181;-80
2023/01/01 09:33:02;;;;;;;6.28;2.20;;;14.70;99.90;;;;;;5073914;28;20191;-83
2023/01/01 09:35:29;;;;;;;6.32;2.25;;;14.60;99.90;;;;;;5072473;28;20165;-78
2023/01/01 09:37:55;;;;;;;10.55;2.28;;;14.50;99.90;;;;;;5073391;28;20167;-80
2023/01/01 09:40:42;;;;;;;8.95;2.22;;;14.30;99.90;;;;;;5075214;28;20169;-81
2023/01/01 09:43:33;;;;;;;7.43;2.38;;;14.40;99.90;;;;;;5080648;28;20206;-81
2023/01/01 09:46:09;;;;;;;6.07;2.08;;;14.40;99.90;;;;;;5095921;28;20143;-81
2023/01/01 09:48:39;;;;;;;12.68;2.95;;;14.50;99.90;;;;;;5086335;28;20181;-86
2023/01/01 09:51:12;;;;;;;7.13;2.28;;;14.60;99.90;;;;;;5074161;28;20535;-80
2023/01/01 09:53:54;;;;;;;14.20;3.55;;;14.40;99.90;;;;;;5073854;28;20178;-79
2023/01/01 09:56:24;;;;;;;14.30;2.20;;;14.40;99.90;;;;;;5075011;28;20562;-82
2023/01/01 09:58:50;;;;;;;12.05;2.47;;;14.40;99.90;;;;;;5074172;28;20198;-81
2023/01/01 10:01:39;;;;;;;9.73;2.17;;;14.30;99.90;;;;;;5072862;28;20684;-80
2023/01/01 10:04:22;;;;;;;7.65;2.47;;;14.20;99.90;;;;;;5073498;28;20239;-80
2023/01/01 10:07:18;;;;;;;6.68;2.13;;;14.40;99.90;;;;;;5072864;28;20265;-82
2023/01/01 10:10:08;;;;;;;10.77;3.13;;;14.40;99.90;;;;;;5073607;28;20175;-81
2023/01/01 10:12:57;;;;;;;19.35;2.25;;;14.50;99.90;;;;;;5073768;28;20166;-80
2023/01/01 10:15:28;;;;;;;6.03;1.90;;;14.50;99.90;;;;;;5073352;28;20262;-80
2023/01/01 10:17:58;;;;;;;7.75;1.90;;;14.50;99.90;;;;;;5074036;28;20261;-82
2023/01/01 10:20:35;;;;;;;5.22;1.52;;;14.50;99.90;;;;;;5076375;28;20190;-81
2023/01/01 10:23:23;;;;;;;8.50;2.35;;;14.50;99.90;;;;;;5077633;28;20202;-79
2023/01/01 10:25:49;;;;;;;7.28;1.95;;;14.50;99.90;;;;;;5074694;28;20176;-80
2023/01/01 10:28:48;;;;;;;9.45;1.65;;;14.50;99.90;;;;;;5081226;28;20190;-79
2023/01/01 10:31:15;;;;;;;6.55;1.83;;;14.60;99.90;;;;;;5083368;28;20533;-80
2023/01/01 10:33:46;;;;;;;10.05;2.03;;;14.60;99.90;;;;;;5080423;28;20666;-86
2023/01/01 10:36:16;;;;;;;9.07;1.88;;;14.60;99.90;;;;;;5066379;28;20174;-79
2023/01/01 10:38:41;;;;;;;9.55;2.00;;;14.60;99.90;;;;;;5080628;28;20155;-80
2023/01/01 10:41:10;;;;;;;3.85;2.25;;;14.50;99.90;;;;;;5081955;28;20337;-79
2023/01/01 10:43:37;;;;;;;7.60;2.45;;;14.50;99.90;;;;;;5077828;28;20206;-81
2023/01/01 10:46:04;;;;;;;3.53;1.73;;;14.50;99.90;;;;;;5075207;28;20770;-80
2023/01/01 10:48:32;;;;;;;12.20;1.88;;;14.60;99.90;;;;;;5080725;28;20192;-80
2023/01/01 10:51:14;;;;;;;2.40;1.40;;;14.60;99.90;;;;;;5083662;28;20166;-86
2023/01/01 10:53:48;;;;;;;9.55;1.77;;;14.80;99.90;;;;;;5081770;28;20186;-80
2023/01/01 10:56:19;;;;;;;7.72;2.20;;;15.00;99.90;;;;;;5078739;28;20178;-81
2023/01/01 10:58:49;;;;;;;6.68;1.63;;;15.00;99.90;;;;;;5072449;28;20710;-81
2023/01/01 11:01:25;;;;;;;6.53;1.58;;;15.00;99.90;;;;;;5073461;28;20155;-80
2023/01/01 11:04:07;;;;;;;14.25;2.00;;;14.90;99.90;;;;;;5073527;28;20226;-80
2023/01/01 11:06:36;;;;;;;5.05;1.80;;;14.90;99.90;;;;;;5075242;28;20175;-79
2023/01/01 11:09:18;;;;;;;8.93;1.65;;;14.90;99.90;;;;;;5076888;28;20235;-80
2023/01/01 11:11:46;;;;;;;14.65;2.30;;;14.90;99.90;;;;;;5075743;28;20308;-79
2023/01/01 11:14:25;;;;;;;3.75;1.58;;;15.00;99.90;;;;;;5076089;28;20171;-80
2023/01/01 11:16:52;;;;;;;8.98;1.45;;;15.00;99.90;;;;;;5077247;28;20178;-80
2023/01/01 11:19:32;;;;;;;15.27;1.80;;;15.00;99.90;;;;;;5075045;28;20151;-81
2023/01/01 11:21:59;;;;;;;8.85;1.73;;;15.00;99.90;;;;;;5074497;28;20574;-80
2023/01/01 11:24:27;;;;;;;11.05;2.20;;;14.90;99.90;;;;;;5075771;28;20261;-80
2023/01/01 11:27:10;;;;;;;10.80;1.90;;;14.90;99.90;;;;;;5078653;28;20171;-79
2023/01/01 11:29:36;;;;;;;11.63;2.38;;;15.10;99.90;;;;;;5074707;28;20174;-80
2023/01/01 11:32:07;;;;;;;6.45;2.03;;;15.30;99.90;;;;;;5074548;28;20658;-82
2023/01/01 11:34:39;;;;;;;4.78;1.80;;;15.30;99.90;;;;;;5075653;28;20635;-80
2023/01/01 11:37:28;;;;;;;9.45;2.17;;;15.40;99.90;;;;;;5075275;28;20176;-81
2023/01/01 11:39:56;;;;;;;11.70;1.95;;;15.30;99.90;;;;;;5077516;28;20257;-81
2023/01/01 11:42:42;;;;;;;8.43;2.33;;;15.50;99.90;;;;;;5059875;28;20206;-80
2023/01/01 11:45:24;;;;;;;6.72;2.03;;;15.40;99.90;;;;;;5093036;28;20173;-82
2023/01/01 11:47:54;;;;;;;8.15;1.63;;;15.40;99.90;;;;;;5083190;28;20236;-80
2023/01/01 11:50:30;;;;;;;9.88;2.20;;;15.40;99.90;;;;;;5076467;28;20174;-78
2023/01/01 11:52:58;;;;;;;10.23;1.77;;;15.30;99.90;;;;;;5074847;28;20193;-80
2023/01/01 11:55:36;;;;;;;6.60;1.83;;;15.20;99.90;;;;;;5075768;28;20201;-79
2023/01/01 11:58:08;;;;;;;15.82;2.10;;;15.30;99.90;;;;;;5074083;28;20178;-82
2023/01/01 12:00:35;;;;;;;5.88;1.92;;;15.30;99.90;;;;;;5075567;28;20225;-79
2023/01/01 12:03:31;;;;;;;6.47;1.65;;;15.40;99.90;;;;;;5072509;28;20273;-79
2023/01/01 12:06:33;;;;;;;12.50;2.40;;;15.40;99.90;;;;;;5073990;28;20169;-79
2023/01/01 12:09:13;;;;;;;7.88;2.15;;;15.30;99.90;;;;;;5074980;28;20185;-79
2023/01/01 12:12:04;;;;;;;11.10;2.08;;;15.20;99.90;;;;;;5074803;28;20174;-81
2023/01/01 12:14:53;;;;;;;11.48;2.20;;;15.20;99.90;;;;;;5075359;28;20619;-81
2023/01/01 12:17:36;;;;;;;9.40;2.47;;;15.20;99.90;;;;;;5075502;28;20562;-80
2023/01/01 12:20:03;;;;;;;11.77;2.20;;;15.20;99.90;;;;;;5075534;28;20176;-81
2023/01/01 12:22:29;;;;;;;4.13;1.60;;;15.30;99.90;;;;;;5073932;28;20640;-84
2023/01/01 12:24:56;;;;;;;13.93;2.60;;;15.40;99.90;;;;;;5075286;28;20163;-81
2023/01/01 12:27:33;;;;;;;9.45;2.60;;;15.40;99.90;;;;;;5073776;28;20193;-85
2023/01/01 12:30:24;;;;;;;12.50;2.05;;;15.40;99.90;;;;;;5070713;28;20254;-78
2023/01/01 12:33:02;;;;;;;7.70;1.77;;;15.30;99.90;;;;;;5062030;28;20193;-79
2023/01/01 12:36:02;;;;;;;7.95;1.95;;;15.20;99.90;;;;;;5060451;28;20707;-79
2023/01/01 12:38:33;;;;;;;8.05;2.25;;;15.30;99.90;;;;;;5074717;28;20184;-81
2023/01/01 12:41:17;;;;;;;10.18;2.00;;;15.20;99.90;;;;;;5075150;28;20654;-81
2023/01/01 12:44:01;;;;;;;5.65;2.28;;;15.20;99.90;;;;;;5055688;28;20360;-83
2023/01/01 12:47:00;;;;;;;10.73;2.10;;;15.20;99.90;;;;;;5068117;28;20177;-80
2023/01/01 12:49:34;;;;;;;9.02;1.83;;;15.10;99.90;;;;;;5073801;28;20166;-80
2023/01/01 12:52:28;;;;;;;9.80;3.20;;;15.20;99.90;;;;;;5073328;28;20268;-92
2023/01/01 12:55:38;;;;;;;9.60;2.55;;;15.30;99.90;;;;;;5075200;28;20194;-81
2023/01/01 12:58:14;;;;;;;2.72;1.65;;;15.30;99.90;;;;;;5074639;28;20187;-79
2023/01/01 13:00:47;;;;;;;6.10;1.77;;;15.20;99.90;;;;;;5073163;28;20166;-89
2023/01/01 13:03:23;;;;;;;4.82;1.80;;;15.30;99.90;;;;;;5074778;28;20715;-85
2023/01/01 13:05:54;;;;;;;5.78;2.00;;;15.20;99.90;;;;;;5072686;28;20158;-80
2023/01/01 13:08:20;;;;;;;11.75;2.53;;;15.30;99.90;;;;;;5078601;28;20257;-82
2023/01/01 13:10:51;;;;;;;5.38;1.85;;;15.40;99.90;;;;;;5077651;28;20587;-83